| time (UTC) | temp F | wind direction | speed MPH | gust MPH | rain 1hr in | rain 24hr in | rain mn in | humidity % | barometer mb |
| 20260905184533 | 73 | 336 | 1.0 | 10.0 | 0.00 | 0.00 | 0.00 | 61 | 1011.0 |
| 20260905183034 | 73 | 71 | 2.0 | 7.0 | 0.00 | 0.00 | 0.00 | 60 | 1010.8 |
| 20260905181523 | 74 | 22 | 2.0 | 8.0 | 0.00 | 0.00 | 0.00 | 59 | 1010.8 |
| 20260905180033 | 74 | 96 | 3.0 | 10.0 | 0.00 | 0.00 | 0.00 | 63 | 1010.7 |
| 20260905174528 | 75 | 91 | 4.0 | 12.0 | 0.00 | 0.00 | 0.00 | 55 | 1010.7 |
| 20260905173013 | 74 | 331 | 2.0 | 12.0 | 0.00 | 0.00 | 0.00 | 63 | 1010.6 |
| 20260905171519 | 73 | 74 | 2.0 | 7.0 | 0.00 | 0.00 | 0.00 | 63 | 1010.5 |
| 20260905170025 | 72 | 5 | 3.0 | 10.0 | 0.00 | 0.00 | 0.00 | 62 | 1010.5 |
| 20260905164528 | 73 | 23 | 3.0 | 8.0 | 0.00 | 0.00 | 0.00 | 62 | 1010.7 |
| 20260905163030 | 73 | 59 | 2.0 | 8.0 | 0.00 | 0.00 | 0.00 | 65 | 1010.7 |
| 20260905161516 | 72 | 116 | 0.0 | 7.0 | 0.00 | 0.00 | 0.00 | 63 | 1010.8 |
| 20260905160028 | 71 | 346 | 3.0 | 13.0 | 0.00 | 0.00 | 0.00 | 67 | 1010.9 |
| 20260905154535 | 72 | 71 | 4.0 | 8.0 | 0.00 | 0.00 | 0.00 | 64 | 1010.8 |
| 20260905153033 | 70 | 69 | 1.0 | 9.0 | 0.00 | 0.00 | 0.00 | 69 | 1011.0 |
| 20260905151536 | 69 | 259 | 1.0 | 8.0 | 0.00 | 0.00 | 0.00 | 71 | 1011.1 |
| 20260905150024 | 71 | 321 | 2.0 | 9.0 | 0.00 | 0.00 | 0.00 | 66 | 1011.0 |
| 20260905144533 | 69 | 37 | 1.0 | 4.0 | 0.00 | 0.00 | 0.00 | 71 | 1011.0 |
| 20260905143029 | 70 | 32 | 2.0 | 7.0 | 0.00 | 0.00 | 0.00 | 71 | 1011.2 |
| 20260905141532 | 67 | 246 | 1.0 | 5.0 | 0.00 | 0.00 | 0.00 | 74 | 1011.0 |
| 20260905140034 | 68 | 299 | 3.0 | 12.0 | 0.00 | 0.00 | 0.00 | 76 | 1011.1 |
| 20260905134526 | 67 | 56 | 2.0 | 6.0 | 0.00 | 0.00 | 0.00 | 76 | 1010.9 |
| 20260905133039 | 66 | 321 | 2.0 | 5.0 | 0.00 | 0.00 | 0.00 | 78 | 1010.9 |
| 20260905131530 | 66 | 349 | 1.0 | 6.0 | 0.00 | 0.00 | 0.00 | 79 | 1010.9 |
| 20260905130035 | 66 | 301 | 2.0 | 4.0 | 0.00 | 0.00 | 0.00 | 80 | 1010.6 |
| 20260905124525 | 64 | 215 | 0.0 | 2.0 | 0.00 | 0.00 | 0.00 | 86 | 1010.7 |
| 20260905123026 | 63 | 155 | 1.0 | 3.0 | 0.00 | 0.00 | 0.00 | 86 | 1010.6 |
| 20260905121508 | 60 | 213 | 0.0 | 2.0 | 0.00 | 0.00 | 0.00 | 95 | 1010.6 |
| 20260905120017 | 59 | 123 | 0.0 | 2.0 | 0.00 | 0.00 | 0.00 | 96 | 1010.7 |
| 20260905114518 | 58 | 23 | 0.0 | 2.0 | 0.00 | 0.00 | 0.00 | 97 | 1010.6 |
| 20260905113031 | 57 | 106 | 0.0 | 2.0 | 0.00 | 0.00 | 0.00 | 96 | 1010.4 |
| 20260905111506 | 57 | 301 | 0.0 | 2.0 | 0.00 | 0.00 | 0.00 | 97 | 1010.2 |
| 20260905110030 | 56 | 321 | 0.0 | 0.0 | 0.00 | 0.00 | 0.00 | 97 | 1010.2 |
| 20260905104526 | 56 | 321 | 0.0 | 2.0 | 0.00 | 0.00 | 0.00 | 97 | 1010.2 |
| 20260905103026 | 56 | 11 | 0.0 | 2.0 | 0.00 | 0.00 | 0.00 | 97 | 1010.1 |
| 20260905101545 | 55 | 79 | 0.0 | 1.0 | 0.00 | 0.00 | 0.00 | 97 | 1010.1 |
| 20260905100010 | 55 | 111 | 0.0 | 2.0 | 0.00 | 0.00 | 0.00 | 97 | 1009.9 |
| 20260905094514 | 54 | 303 | 0.0 | 0.0 | 0.00 | 0.00 | 0.00 | 96 | 1009.9 |
| 20260905093019 | 54 | 303 | 0.0 | 2.0 | 0.00 | 0.00 | 0.00 | 96 | 1009.8 |
| 20260905091527 | 53 | 298 | 0.0 | 2.0 | 0.00 | 0.00 | 0.00 | 95 | 1009.7 |
| 20260905090028 | 54 | 298 | 0.0 | 0.0 | 0.00 | 0.00 | 0.00 | 95 | 1009.7 |
| 20260905084512 | 54 | 298 | 0.0 | 1.0 | 0.00 | 0.01 | 0.00 | 95 | 1009.6 |
| 20260905083017 | 54 | 298 | 0.0 | 2.0 | 0.00 | 0.01 | 0.00 | 95 | 1009.7 |
| 20260905081524 | 55 | 9 | 0.0 | 2.0 | 0.00 | 0.01 | 0.00 | 94 | 1009.6 |
| 20260905080039 | 56 | 280 | 0.0 | 0.0 | 0.00 | 0.01 | 0.00 | 95 | 1009.6 |
| 20260905074535 | 56 | 311 | 1.0 | 2.0 | 0.00 | 0.01 | 0.00 | 96 | 1009.6 |
| 20260905073014 | 55 | 316 | 0.0 | 1.0 | 0.00 | 0.01 | 0.00 | 94 | 1009.7 |
| 20260905071523 | 56 | 316 | 0.0 | 2.0 | 0.00 | 0.01 | 0.00 | 94 | 1009.8 |
| 20260905070028 | 56 | 288 | 0.0 | 2.0 | 0.00 | 0.01 | 0.00 | 93 | 1010.0 |
| 20260905064530 | 57 | 288 | 0.0 | 2.0 | 0.00 | 0.01 | 0.00 | 92 | 1010.1 |
| 20260905063033 | 57 | 288 | 0.0 | 2.0 | 0.00 | 0.01 | 0.00 | 93 | 1010.1 |
| 20260905061525 | 57 | 313 | 0.0 | 0.0 | 0.00 | 0.01 | 0.00 | 94 | 1010.2 |
| 20260905060030 | 57 | 313 | 0.0 | 2.0 | 0.00 | 0.01 | 0.00 | 94 | 1010.2 |
| 20260905054528 | 57 | 313 | 0.0 | 2.0 | 0.00 | 0.01 | 0.00 | 92 | 1010.2 |
| 20260905053032 | 58 | 321 | 0.0 | 0.0 | 0.00 | 0.01 | 0.00 | 92 | 1010.1 |
| 20260905051542 | 58 | 321 | 0.0 | 2.0 | 0.00 | 0.01 | 0.00 | 91 | 1010.2 |
| 20260905050021 | 59 | 321 | 0.0 | 2.0 | 0.00 | 0.01 | 0.00 | 89 | 1010.3 |
| 20260905044534 | 60 | 311 | 0.0 | 2.0 | 0.00 | 0.01 | 0.00 | 88 | 1010.4 |
| 20260905043030 | 61 | 344 | 1.0 | 2.0 | 0.00 | 0.01 | 0.00 | 86 | 1010.4 |
| 20260905041534 | 63 | 313 | 0.0 | 3.0 | 0.00 | 0.01 | 0.00 | 83 | 1010.4 |
| 20260905040035 | 64 | 289 | 1.0 | 3.0 | 0.00 | 0.01 | 0.00 | 80 | 1010.0 |
| 20260905034528 | 65 | 228 | 0.0 | 4.0 | 0.00 | 0.01 | 0.01 | 77 | 1010.1 |
| 20260905033100 | 66 | 320 | 3.0 | 8.0 | 0.00 | 0.01 | 0.01 | 76 | 1009.8 |
| 20260905031533 | 65 | 231 | 1.0 | 7.0 | 0.00 | 0.01 | 0.01 | 77 | 1009.9 |
| 20260905030047 | 65 | 274 | 2.0 | 7.0 | 0.00 | 0.01 | 0.01 | 78 | 1010.0 |
| 20260905024532 | 65 | 288 | 1.0 | 6.0 | 0.00 | 0.01 | 0.01 | 78 | 1010.2 |
| 20260905023026 | 65 | 328 | 1.0 | 4.0 | 0.00 | 0.01 | 0.01 | 80 | 1010.5 |
| 20260905021530 | 65 | 272 | 0.0 | 5.0 | 0.00 | 0.01 | 0.01 | 80 | 1010.7 |
| 20260905020032 | 64 | 325 | 1.0 | 4.0 | 0.00 | 0.01 | 0.01 | 82 | 1010.8 |
| 20260905014532 | 63 | 312 | 0.0 | 1.0 | 0.00 | 0.01 | 0.01 | 87 | 1010.9 |
| 20260905013036 | 63 | 340 | 0.0 | 2.0 | 0.00 | 0.01 | 0.01 | 86 | 1011.1 |
| 20260905011526 | 62 | 341 | 0.0 | 2.0 | 0.00 | 0.01 | 0.01 | 89 | 1011.0 |
| 20260905010033 | 62 | 11 | 0.0 | 2.0 | 0.00 | 0.01 | 0.01 | 88 | 1010.9 |
| 20260905004514 | 61 | 352 | 0.0 | 2.0 | 0.00 | 0.01 | 0.01 | 89 | 1011.0 |
| 20260905003023 | 62 | 319 | 0.0 | 0.0 | 0.00 | 0.01 | 0.01 | 88 | 1011.0 |
| 20260905001525 | 62 | 319 | 0.0 | 0.0 | 0.00 | 0.01 | 0.01 | 87 | 1010.9 |
| 20260905000011 | 62 | 319 | 0.0 | 0.0 | 0.00 | 0.01 | 0.01 | 87 | 1010.7 |
| 20260904234514 | 63 | 319 | 0.0 | 2.0 | 0.00 | 0.01 | 0.01 | 86 | 1010.5 |
| 20260904233018 | 64 | 319 | 0.0 | 2.0 | 0.00 | 0.01 | 0.01 | 84 | 1010.4 |
| 20260904231534 | 65 | 313 | 0.0 | 2.0 | 0.00 | 0.01 | 0.01 | 82 | 1010.2 |
| 20260904230052 | 66 | 339 | 0.0 | 2.0 | 0.00 | 0.01 | 0.01 | 80 | 1010.2 |
| 20260904224511 | 68 | 315 | 0.0 | 2.0 | 0.00 | 0.01 | 0.01 | 75 | 1010.3 |
| 20260904223018 | 71 | 11 | 0.0 | 2.0 | 0.00 | 0.01 | 0.01 | 70 | 1010.1 |
| 20260904221523 | 72 | 53 | 0.0 | 2.0 | 0.00 | 0.01 | 0.01 | 64 | 1009.9 |
| 20260904220029 | 73 | 5 | 2.0 | 6.0 | 0.00 | 0.01 | 0.01 | 61 | 1010.0 |
| 20260904214530 | 73 | 122 | 0.0 | 6.0 | 0.00 | 0.01 | 0.01 | 60 | 1010.0 |
| 20260904213032 | 74 | 94 | 0.0 | 7.0 | 0.00 | 0.01 | 0.01 | 59 | 1010.0 |
| 20260904211535 | 75 | 84 | 2.0 | 5.0 | 0.00 | 0.01 | 0.01 | 59 | 1009.9 |
| 20260904210026 | 75 | 225 | 0.0 | 5.0 | 0.00 | 0.01 | 0.01 | 58 | 1010.0 |
| 20260904204533 | 75 | 286 | 0.0 | 5.0 | 0.00 | 0.01 | 0.01 | 61 | 1009.8 |
| 20260904203031 | 76 | 303 | 0.0 | 8.0 | 0.00 | 0.01 | 0.01 | 56 | 1009.9 |
| 20260904201532 | 76 | 232 | 2.0 | 8.0 | 0.00 | 0.01 | 0.01 | 56 | 1009.8 |
| 20260904200047 | 76 | 336 | 3.0 | 9.0 | 0.00 | 0.01 | 0.01 | 56 | 1010.0 |
| 20260904194533 | 76 | 313 | 1.0 | 8.0 | 0.00 | 0.01 | 0.01 | 58 | 1010.0 |
| 20260904193037 | 78 | 56 | 2.0 | 7.0 | 0.00 | 0.01 | 0.01 | 54 | 1009.9 |
| 20260904191538 | 77 | 11 | 1.0 | 8.0 | 0.00 | 0.01 | 0.01 | 56 | 1010.1 |
| 20260904190030 | 76 | 304 | 1.0 | 7.0 | 0.00 | 0.01 | 0.01 | 56 | 1010.0 |